createdAt,value
2022-08-05T00:00:25.878Z,950.83
2022-08-05T00:01:27.896Z,950.83
2022-08-05T00:02:24.547Z,950.77
2022-08-05T00:03:23.525Z,950.75
2022-08-05T00:04:23.456Z,950.78
2022-08-05T00:06:02.663Z,950.82
2022-08-05T00:06:32.259Z,950.78
2022-08-05T00:07:58.864Z,950.76
2022-08-05T00:08:34.298Z,950.73
2022-08-05T00:09:24.396Z,950.79
2022-08-05T00:10:27.091Z,950.76
2022-08-05T00:11:28.099Z,950.75
2022-08-05T00:12:24.376Z,950.81
2022-08-05T00:13:38.343Z,950.71
2022-08-05T00:14:27.809Z,950.73
2022-08-05T00:15:56.135Z,950.74
2022-08-05T00:16:36.475Z,950.72
2022-08-05T00:17:24.315Z,950.79
2022-08-05T00:18:23.295Z,950.78
2022-08-05T00:19:24.948Z,950.78
2022-08-05T00:20:28.925Z,950.77
2022-08-05T00:21:24.255Z,950.81
2022-08-05T00:22:24.265Z,950.83
2022-08-05T00:23:44.374Z,950.71
2022-08-05T00:24:30.945Z,950.72
2022-08-05T00:25:24.215Z,950.68
2022-08-05T00:26:23.205Z,950.74
2022-08-05T00:27:36.133Z,950.70
2022-08-05T00:28:29.722Z,950.70
2022-08-05T00:29:25.821Z,950.72
2022-08-05T00:30:29.291Z,950.72
2022-08-05T00:31:53.458Z,950.77
2022-08-05T00:32:25.753Z,950.77
2022-08-05T00:34:53.476Z,950.68
2022-08-05T00:34:56.865Z,950.67
2022-08-05T00:35:24.099Z,950.76
2022-08-05T00:37:10.483Z,950.74
2022-08-05T00:37:24.423Z,950.71
2022-08-05T00:38:28.863Z,950.76
2022-08-05T00:39:24.538Z,950.76
2022-08-05T00:40:27.955Z,950.70
2022-08-05T00:41:24.032Z,950.73
2022-08-05T00:42:31.825Z,950.75
2022-08-05T00:43:24.013Z,950.75
2022-08-05T00:44:23.353Z,950.73
2022-08-05T00:45:38.091Z,950.76
2022-08-05T00:46:36.962Z,950.73
2022-08-05T00:47:23.972Z,950.74
2022-08-05T00:48:27.759Z,950.72
2022-08-05T00:49:23.963Z,950.70
2022-08-05T00:50:25.166Z,950.74
2022-08-05T00:51:51.194Z,950.66
2022-08-05T00:52:28.200Z,950.75
2022-08-05T00:54:00.547Z,950.64
2022-08-05T00:54:23.883Z,950.75
2022-08-05T00:55:22.874Z,950.67
2022-08-05T00:56:23.109Z,950.65
2022-08-05T00:57:25.130Z,950.64
2022-08-05T00:58:27.162Z,950.69
2022-08-05T00:59:22.823Z,950.69
2022-08-05T01:00:22.811Z,950.69
2022-08-05T01:01:42.176Z,950.72
2022-08-05T01:02:24.414Z,950.72
2022-08-05T01:03:23.504Z,950.69
2022-08-05T01:04:26.954Z,950.74
2022-08-05T01:05:23.752Z,950.71
2022-08-05T01:06:26.595Z,950.71
2022-08-05T01:07:23.944Z,950.74
2022-08-05T01:08:41.774Z,950.69
2022-08-05T01:09:23.703Z,950.67
2022-08-05T01:10:25.831Z,950.71
2022-08-05T01:11:33.339Z,950.65
2022-08-05T01:12:23.683Z,950.71
2022-08-05T01:13:27.161Z,950.69
2022-08-05T01:14:28.475Z,950.68
2022-08-05T01:15:36.440Z,950.65
2022-08-05T01:16:26.341Z,950.69
2022-08-05T01:17:22.907Z,950.64
2022-08-05T01:18:22.600Z,950.70
2022-08-05T01:19:46.314Z,950.63
2022-08-05T01:20:23.581Z,950.71
2022-08-05T01:21:23.075Z,950.69
2022-08-05T01:22:24.069Z,950.72
2022-08-05T01:23:22.728Z,950.71
2022-08-05T01:24:22.540Z,950.69
2022-08-05T01:25:22.530Z,950.65
2022-08-05T01:26:26.171Z,950.67
2022-08-05T01:27:22.501Z,950.65
2022-08-05T01:28:22.484Z,950.65
2022-08-05T01:29:23.196Z,950.61
2022-08-05T01:30:34.817Z,950.62
2022-08-05T01:31:23.450Z,950.62
2022-08-05T01:32:22.451Z,950.61
2022-08-05T01:33:22.430Z,950.62
2022-08-05T01:34:22.410Z,950.62
2022-08-05T01:35:51.966Z,950.63
2022-08-05T01:36:28.328Z,950.67
2022-08-05T01:37:25.128Z,950.68
2022-08-05T01:38:24.670Z,950.62
2022-08-05T01:39:46.341Z,950.68
2022-08-05T01:40:27.966Z,950.70
2022-08-05T01:41:25.520Z,950.64
2022-08-05T01:42:22.338Z,950.66
2022-08-05T01:43:24.156Z,950.63
2022-08-05T01:44:22.300Z,950.66
2022-08-05T01:45:23.292Z,950.69
2022-08-05T01:46:42.466Z,950.69
2022-08-05T01:47:23.411Z,950.66
2022-08-05T01:48:22.252Z,950.72
2022-08-05T01:49:24.131Z,950.72
2022-08-05T01:50:28.591Z,950.64
2022-08-05T01:51:23.218Z,950.70
2022-08-05T01:52:22.346Z,950.66
2022-08-05T01:53:54.588Z,950.69
2022-08-05T01:54:24.633Z,950.73
2022-08-05T01:55:22.179Z,950.75
2022-08-05T01:58:10.468Z,950.72
2022-08-05T01:58:10.637Z,950.73
2022-08-05T01:58:40.475Z,950.76
2022-08-05T01:59:23.128Z,950.76
2022-08-05T02:00:30.132Z,950.73
2022-08-05T02:01:23.311Z,950.71
2022-08-05T02:02:25.999Z,950.69
2022-08-05T02:03:29.017Z,950.74
2022-08-05T02:04:23.087Z,950.75
2022-08-05T02:05:23.379Z,950.75
2022-08-05T02:06:36.967Z,950.73
2022-08-05T02:07:23.311Z,950.72
2022-08-05T02:08:29.755Z,950.75
2022-08-05T02:09:23.015Z,950.64
2022-08-05T02:10:28.150Z,950.73
2022-08-05T02:11:23.706Z,950.70
2022-08-05T02:12:21.996Z,950.70
2022-08-05T02:13:22.021Z,950.67
2022-08-05T02:14:21.965Z,950.71
2022-08-05T02:15:21.946Z,950.70
2022-08-05T02:16:22.245Z,950.71
2022-08-05T02:18:27.998Z,950.68
2022-08-05T02:18:30.821Z,950.68
2022-08-05T02:19:22.904Z,950.71
2022-08-05T02:20:22.271Z,950.73
2022-08-05T02:21:21.888Z,950.71
2022-08-05T02:22:26.671Z,950.68
2022-08-05T02:23:22.855Z,950.75
2022-08-05T02:24:23.184Z,950.66
2022-08-05T02:25:21.835Z,950.69
2022-08-05T02:26:21.918Z,950.71
2022-08-05T02:27:29.866Z,950.75
2022-08-05T02:28:28.833Z,950.63
2022-08-05T02:29:26.058Z,950.66
2022-08-05T02:30:22.774Z,950.65
2022-08-05T02:31:21.779Z,950.77
2022-08-05T02:32:24.170Z,950.70
2022-08-05T02:33:24.640Z,950.76
2022-08-05T02:34:22.737Z,950.74
2022-08-05T02:35:27.831Z,950.69
2022-08-05T02:36:22.726Z,950.72
2022-08-05T02:37:22.937Z,950.65
2022-08-05T02:38:21.694Z,950.65
2022-08-05T02:39:22.758Z,950.68
2022-08-05T02:40:21.676Z,950.68
2022-08-05T02:41:22.966Z,950.65
2022-08-05T02:42:26.052Z,950.65
2022-08-05T02:43:22.634Z,950.66
2022-08-05T02:44:21.625Z,950.64
2022-08-05T02:45:24.183Z,950.67
2022-08-05T02:46:27.646Z,950.67
2022-08-05T02:47:22.744Z,950.63
2022-08-05T02:48:21.583Z,950.68
2022-08-05T02:49:22.565Z,950.67
2022-08-05T02:50:21.563Z,950.70
2022-08-05T02:51:28.264Z,950.71
2022-08-05T02:52:30.167Z,950.68
2022-08-05T02:53:22.533Z,950.69
2022-08-05T02:54:35.687Z,950.63
2022-08-05T02:55:54.856Z,950.67
2022-08-05T02:56:22.492Z,950.65
2022-08-05T02:58:11.772Z,950.65
2022-08-05T02:58:22.787Z,950.67
2022-08-05T02:59:21.460Z,950.62
2022-08-05T03:00:22.452Z,950.60
2022-08-05T03:01:21.537Z,950.67
2022-08-05T03:02:21.437Z,950.62
2022-08-05T03:03:23.439Z,950.56
2022-08-05T03:04:23.109Z,950.60
2022-08-05T03:05:21.675Z,950.62
2022-08-05T03:06:55.443Z,950.57
2022-08-05T03:08:00.647Z,950.64
2022-08-05T03:08:29.552Z,950.69
2022-08-05T03:09:27.109Z,950.61
2022-08-05T03:10:24.825Z,950.62
2022-08-05T03:11:55.599Z,950.58
2022-08-05T03:12:22.322Z,950.64
2022-08-05T03:13:21.301Z,950.62
2022-08-05T03:14:22.311Z,950.64
2022-08-05T03:15:21.271Z,950.64
2022-08-05T03:16:21.269Z,950.59
2022-08-05T03:17:21.662Z,950.58
2022-08-05T03:18:29.818Z,950.57
2022-08-05T03:19:33.524Z,950.59
2022-08-05T03:20:22.233Z,950.58
2022-08-05T03:21:21.217Z,950.53
2022-08-05T03:22:32.384Z,950.57
2022-08-05T03:23:24.130Z,950.57
2022-08-05T03:24:29.550Z,950.63
2022-08-05T03:25:33.564Z,950.47
2022-08-05T03:26:31.843Z,950.46
2022-08-05T03:27:22.361Z,950.47
2022-08-05T03:28:22.130Z,950.45
2022-08-05T03:29:21.120Z,950.55
2022-08-05T03:30:21.110Z,950.51
2022-08-05T03:31:55.456Z,950.54
2022-08-05T03:32:22.090Z,950.61
2022-08-05T03:33:22.071Z,950.57
2022-08-05T03:34:21.070Z,950.65
2022-08-05T03:35:21.049Z,950.56
2022-08-05T03:36:30.070Z,950.56
2022-08-05T03:37:22.791Z,950.55
2022-08-05T03:38:32.733Z,950.59
2022-08-05T03:39:27.189Z,950.57
2022-08-05T03:40:24.427Z,950.66
2022-08-05T03:41:23.642Z,950.70
2022-08-05T03:42:20.979Z,950.67
2022-08-05T03:44:09.760Z,950.65
2022-08-05T03:44:21.969Z,950.73
2022-08-05T03:45:22.792Z,950.77
2022-08-05T03:46:20.930Z,950.78
2022-08-05T03:47:22.157Z,950.85
2022-08-05T03:48:21.998Z,950.86
2022-08-05T03:49:20.899Z,950.91
2022-08-05T03:50:20.888Z,950.99
2022-08-05T03:52:37.211Z,950.98
2022-08-05T03:52:39.292Z,950.99
2022-08-05T03:55:50.896Z,950.98
2022-08-05T03:55:52.703Z,950.96
2022-08-05T03:56:05.472Z,951.10
2022-08-05T03:56:30.521Z,951.06
2022-08-05T03:57:21.808Z,951.10
2022-08-05T03:58:21.809Z,951.09
2022-08-05T03:59:21.788Z,951.10
2022-08-05T04:00:20.779Z,951.11
2022-08-05T04:01:21.144Z,951.17
2022-08-05T04:02:37.484Z,951.16
2022-08-05T04:03:28.207Z,951.12
2022-08-05T04:04:21.728Z,951.07
2022-08-05T04:05:20.717Z,951.09
2022-08-05T04:06:20.738Z,951.12
2022-08-05T04:07:20.936Z,951.10
2022-08-05T04:08:34.606Z,951.06
2022-08-05T04:09:26.465Z,951.05
2022-08-05T04:10:21.668Z,951.05
2022-08-05T04:11:20.647Z,951.02
2022-08-05T04:12:24.585Z,951.04
2022-08-05T04:13:20.627Z,951.02
2022-08-05T04:14:30.536Z,951.02
2022-08-05T04:15:24.452Z,951.01
2022-08-05T04:16:24.940Z,951.03
2022-08-05T04:17:21.701Z,951.01
2022-08-05T04:18:22.673Z,951.02
2022-08-05T04:19:21.557Z,951.02
2022-08-05T04:20:20.557Z,951.13
2022-08-05T04:22:08.670Z,951.03
2022-08-05T04:22:21.535Z,951.08
2022-08-05T04:23:20.537Z,951.06
2022-08-05T04:24:22.511Z,951.07
2022-08-05T04:25:38.350Z,951.04
2022-08-05T04:26:21.476Z,951.11
2022-08-05T04:27:42.138Z,951.05
2022-08-05T04:28:31.065Z,951.07
2022-08-05T04:29:21.466Z,951.08
2022-08-05T04:30:20.434Z,951.11
2022-08-05T04:31:20.434Z,951.13
2022-08-05T04:32:30.709Z,951.11
2022-08-05T04:33:54.582Z,951.09
2022-08-05T04:34:33.435Z,951.12
2022-08-05T04:35:21.385Z,951.10
2022-08-05T04:36:46.323Z,951.13
2022-08-05T04:37:21.508Z,951.10
2022-08-05T04:38:21.346Z,951.09
2022-08-05T04:39:20.386Z,951.01
2022-08-05T04:40:20.324Z,951.12
2022-08-05T04:41:20.317Z,951.03
2022-08-05T04:42:21.304Z,951.07
2022-08-05T04:43:21.869Z,951.11
2022-08-05T04:44:21.321Z,951.04
2022-08-05T04:45:23.000Z,951.09
2022-08-05T04:46:28.313Z,951.08
2022-08-05T04:47:21.603Z,951.08
2022-08-05T04:48:27.629Z,951.13
2022-08-05T04:49:24.852Z,951.10
2022-08-05T04:50:37.216Z,951.13
2022-08-05T04:51:21.204Z,951.10
2022-08-05T04:52:20.240Z,951.08
2022-08-05T04:53:20.185Z,951.12
2022-08-05T04:54:20.166Z,951.03
2022-08-05T04:55:21.042Z,951.08
2022-08-05T04:56:34.792Z,951.09
2022-08-05T04:57:21.324Z,951.06
2022-08-05T04:58:21.678Z,951.10
2022-08-05T04:59:23.849Z,951.15
2022-08-05T05:00:23.570Z,951.10
2022-08-05T05:01:33.449Z,951.15
2022-08-05T05:02:41.757Z,951.13
2022-08-05T05:03:21.061Z,951.12
2022-08-05T05:04:20.051Z,951.13
2022-08-05T05:05:28.488Z,951.19
2022-08-05T05:06:40.241Z,951.13
2022-08-05T05:07:23.868Z,951.15
2022-08-05T05:08:26.758Z,951.20
2022-08-05T05:09:21.057Z,951.11
2022-08-05T05:10:20.038Z,951.18
2022-08-05T05:11:19.981Z,951.19
2022-08-05T05:12:19.965Z,951.19
2022-08-05T05:13:19.952Z,951.19
2022-08-05T05:14:21.252Z,951.19
2022-08-05T05:15:56.632Z,951.21
2022-08-05T05:16:20.912Z,951.22
2022-08-05T05:17:24.351Z,951.24
2022-08-05T05:18:31.113Z,951.23
2022-08-05T05:19:23.535Z,951.24
2022-08-05T05:20:20.861Z,951.22
2022-08-05T05:21:19.871Z,951.23
2022-08-05T05:22:24.576Z,951.18
2022-08-05T05:23:20.832Z,951.22
2022-08-05T05:24:19.822Z,951.25
2022-08-05T05:25:19.819Z,951.22
2022-08-05T05:26:28.644Z,951.22
2022-08-05T05:27:20.878Z,951.20
2022-08-05T05:28:19.771Z,951.24
2022-08-05T05:29:19.761Z,951.27
2022-08-05T05:30:29.077Z,951.20
2022-08-05T05:31:20.751Z,951.25
2022-08-05T05:32:19.741Z,951.24
2022-08-05T05:33:23.334Z,951.29
2022-08-05T05:34:26.595Z,951.22
2022-08-05T05:35:20.701Z,951.26
2022-08-05T05:36:19.681Z,951.20
2022-08-05T05:37:19.680Z,951.25
2022-08-05T05:38:26.785Z,951.18
2022-08-05T05:39:20.666Z,951.30
2022-08-05T05:40:19.842Z,951.30
2022-08-05T05:41:19.631Z,951.33
2022-08-05T05:42:20.805Z,951.37
2022-08-05T05:43:27.560Z,951.39
2022-08-05T05:44:36.766Z,951.34
2022-08-05T05:45:20.606Z,951.36
2022-08-05T05:46:19.570Z,951.33
2022-08-05T05:47:21.619Z,951.39
2022-08-05T05:48:19.552Z,951.35
2022-08-05T05:49:23.074Z,951.32
2022-08-05T05:50:19.643Z,951.40
2022-08-05T05:51:19.522Z,951.46
2022-08-05T05:52:28.392Z,951.39
2022-08-05T05:53:22.076Z,951.38
2022-08-05T05:54:19.608Z,951.38
2022-08-05T05:55:19.470Z,951.41
2022-08-05T05:56:26.002Z,951.38
2022-08-05T05:57:20.526Z,951.36
2022-08-05T05:58:19.431Z,951.40
2022-08-05T05:59:20.429Z,951.35
2022-08-05T06:00:19.442Z,951.36
2022-08-05T06:01:19.399Z,951.44
2022-08-05T06:02:32.880Z,951.46
2022-08-05T06:03:39.626Z,951.48
2022-08-05T06:04:20.453Z,951.47
2022-08-05T06:05:19.361Z,951.52
2022-08-05T06:06:19.349Z,951.50
2022-08-05T06:07:22.489Z,951.42
2022-08-05T06:08:31.851Z,951.45
2022-08-05T06:09:25.757Z,951.44
2022-08-05T06:10:20.318Z,951.38
2022-08-05T06:11:19.287Z,951.41
2022-08-05T06:12:19.624Z,951.42
2022-08-05T06:13:19.270Z,951.37
2022-08-05T06:14:19.257Z,951.34
2022-08-05T06:15:24.175Z,951.30
2022-08-05T06:16:31.825Z,951.32
2022-08-05T06:17:21.946Z,951.28
2022-08-05T06:18:19.209Z,951.26
2022-08-05T06:19:34.071Z,951.28
2022-08-05T06:20:21.691Z,951.21
2022-08-05T06:21:19.168Z,951.26
2022-08-05T06:22:19.171Z,951.28
2022-08-05T06:23:19.149Z,951.34
2022-08-05T06:24:19.138Z,951.34
2022-08-05T06:25:24.934Z,951.33
2022-08-05T06:26:21.659Z,951.39
2022-08-05T06:28:12.211Z,951.41
2022-08-05T06:28:20.903Z,951.41
2022-08-05T06:29:25.126Z,951.46
2022-08-05T06:30:21.065Z,951.47
2022-08-05T06:31:22.235Z,951.45
2022-08-05T06:32:26.411Z,951.49
2022-08-05T06:33:20.037Z,951.52
2022-08-05T06:34:20.224Z,951.50
2022-08-05T06:36:01.992Z,951.50
2022-08-05T06:36:20.019Z,951.48
2022-08-05T06:37:56.818Z,951.56
2022-08-05T06:38:35.920Z,951.50
2022-08-05T06:39:20.024Z,951.53
2022-08-05T06:40:21.391Z,951.58
2022-08-05T06:41:19.987Z,951.55
2022-08-05T06:42:18.948Z,951.52
2022-08-05T06:43:58.875Z,951.65
2022-08-05T06:44:19.918Z,951.58
2022-08-05T06:45:21.315Z,951.64
2022-08-05T06:46:19.910Z,951.70
2022-08-05T06:47:29.918Z,951.77
2022-08-05T06:48:53.009Z,951.75
2022-08-05T06:49:21.465Z,951.76
2022-08-05T06:50:19.848Z,951.71
2022-08-05T06:51:22.722Z,951.65
2022-08-05T06:52:37.797Z,951.72
2022-08-05T06:53:22.707Z,951.76
2022-08-05T06:54:19.808Z,951.76
2022-08-05T06:55:19.791Z,951.83
2022-08-05T06:56:26.403Z,951.81
2022-08-05T06:58:02.651Z,951.81
2022-08-05T06:58:34.910Z,951.79
2022-08-05T06:59:19.746Z,951.89
2022-08-05T07:00:24.747Z,951.81
2022-08-05T07:01:21.074Z,951.88
2022-08-05T07:02:18.728Z,951.79
2022-08-05T07:03:18.709Z,951.77
2022-08-05T07:04:19.220Z,951.88
2022-08-05T07:05:20.640Z,951.90
2022-08-05T07:06:19.209Z,951.92
2022-08-05T07:07:24.163Z,952.03
2022-08-05T07:08:19.648Z,952.03
2022-08-05T07:09:19.717Z,952.02
2022-08-05T07:10:19.626Z,952.04
2022-08-05T07:11:22.476Z,952.09
2022-08-05T07:12:19.618Z,952.08
2022-08-05T07:13:52.480Z,952.09
2022-08-05T07:14:20.761Z,952.19
2022-08-05T07:15:34.413Z,952.19
2022-08-05T07:17:57.285Z,952.25
2022-08-05T07:18:00.692Z,952.24
2022-08-05T07:18:29.349Z,952.33
2022-08-05T07:19:44.290Z,952.33
2022-08-05T07:20:37.067Z,952.36
2022-08-05T07:21:25.887Z,952.46
2022-08-05T07:22:19.498Z,952.37
2022-08-05T07:23:26.358Z,952.43
2022-08-05T07:24:19.467Z,952.40
2022-08-05T07:25:54.287Z,952.42
2022-08-05T07:26:22.694Z,952.45
2022-08-05T07:27:19.498Z,952.46
2022-08-05T07:28:18.448Z,952.50
2022-08-05T07:29:18.437Z,952.54
2022-08-05T07:30:23.887Z,952.61
2022-08-05T07:31:19.387Z,952.59
2022-08-05T07:32:19.375Z,952.65
2022-08-05T07:33:19.377Z,952.64
2022-08-05T07:34:21.285Z,952.63
2022-08-05T07:36:01.418Z,952.69
2022-08-05T07:36:20.186Z,952.66
2022-08-05T07:37:18.327Z,952.61
2022-08-05T07:38:33.022Z,952.66
2022-08-05T07:39:50.369Z,952.61
2022-08-05T07:40:32.665Z,952.66
2022-08-05T07:42:09.232Z,952.69
2022-08-05T07:42:19.312Z,952.72
2022-08-05T07:43:20.843Z,952.76
2022-08-05T07:44:19.495Z,952.73
2022-08-05T07:45:18.227Z,952.75
2022-08-05T07:46:25.549Z,952.83
2022-08-05T07:47:19.208Z,952.76
2022-08-05T07:49:03.125Z,952.79
2022-08-05T07:49:19.201Z,952.85
2022-08-05T07:50:18.166Z,952.80
2022-08-05T07:51:23.409Z,952.96
2022-08-05T07:52:19.148Z,952.88
2022-08-05T07:53:18.137Z,953.02
2022-08-05T07:54:18.619Z,953.02
2022-08-05T07:56:04.957Z,953.16
2022-08-05T07:57:02.822Z,953.18
2022-08-05T07:57:51.180Z,953.15
2022-08-05T07:58:57.214Z,953.14
2022-08-05T07:59:23.269Z,953.03
2022-08-05T08:00:19.057Z,953.12
2022-08-05T08:01:18.107Z,953.12
2022-08-05T08:02:18.330Z,953.14
2022-08-05T08:03:18.027Z,953.21
2022-08-05T08:04:18.007Z,953.07
2022-08-05T08:05:19.018Z,952.95
2022-08-05T08:06:17.987Z,952.99
2022-08-05T08:07:21.968Z,953.12
2022-08-05T08:08:19.877Z,953.12
2022-08-05T08:09:17.965Z,953.14
2022-08-05T08:10:20.615Z,953.17
2022-08-05T08:11:17.936Z,953.15
2022-08-05T08:12:35.673Z,953.13
2022-08-05T08:13:21.937Z,953.17
2022-08-05T08:14:19.153Z,953.21
2022-08-05T08:15:17.898Z,953.18
2022-08-05T08:16:35.081Z,953.27
2022-08-05T08:17:18.869Z,953.26
2022-08-05T08:18:20.923Z,953.21
2022-08-05T08:20:00.381Z,953.26
2022-08-05T08:20:43.574Z,953.18
2022-08-05T08:21:18.823Z,953.19
2022-08-05T08:22:17.806Z,953.18
2022-08-05T08:24:03.400Z,953.18
2022-08-05T08:24:18.790Z,953.24
2022-08-05T08:25:18.025Z,953.26
2022-08-05T08:26:29.253Z,953.18
2022-08-05T08:27:18.761Z,953.23
2022-08-05T08:28:18.915Z,953.31
2022-08-05T08:30:03.302Z,953.22
2022-08-05T08:30:32.385Z,953.27
2022-08-05T08:31:18.720Z,953.32
2022-08-05T08:32:21.440Z,953.33
2022-08-05T08:33:19.240Z,953.29
2022-08-05T08:34:18.511Z,953.33
2022-08-05T08:35:17.686Z,953.34
2022-08-05T08:36:48.827Z,953.37
2022-08-05T08:37:19.599Z,953.39
2022-08-05T08:38:18.642Z,953.39
2022-08-05T08:39:18.642Z,953.43
2022-08-05T08:40:17.608Z,953.44
2022-08-05T08:41:17.596Z,953.45
2022-08-05T08:42:33.757Z,953.42
2022-08-05T08:44:54.656Z,953.48
2022-08-05T08:45:18.819Z,953.49
2022-08-05T08:45:26.731Z,953.59
2022-08-05T08:46:18.547Z,953.50
2022-08-05T08:47:47.437Z,953.47
2022-08-05T08:48:36.067Z,953.50
2022-08-05T08:50:22.689Z,953.48
2022-08-05T08:50:31.842Z,953.46
2022-08-05T08:52:01.861Z,953.46
2022-08-05T08:52:18.466Z,953.47
2022-08-05T08:53:17.480Z,953.54
2022-08-05T08:54:17.456Z,953.53
2022-08-05T08:55:19.615Z,953.55
2022-08-05T08:56:18.426Z,953.54
2022-08-05T08:57:17.716Z,953.50
2022-08-05T08:58:17.405Z,953.51
2022-08-05T08:59:19.696Z,953.58
2022-08-05T09:00:19.472Z,953.56
2022-08-05T09:01:18.353Z,953.54
2022-08-05T09:02:17.356Z,953.50
2022-08-05T09:03:19.298Z,953.56
2022-08-05T09:04:17.335Z,953.54
2022-08-05T09:05:18.446Z,953.52
2022-08-05T09:06:21.280Z,953.59
2022-08-05T09:07:28.209Z,953.62
2022-08-05T09:08:18.287Z,953.66
2022-08-05T09:09:17.276Z,953.68
2022-08-05T09:10:17.276Z,953.65
2022-08-05T09:11:17.257Z,953.70
2022-08-05T09:12:20.298Z,953.70
2022-08-05T09:13:17.237Z,953.64
2022-08-05T09:14:57.504Z,953.69
2022-08-05T09:15:18.216Z,953.67
2022-08-05T09:16:17.249Z,953.73
2022-08-05T09:17:42.591Z,953.68
2022-08-05T09:18:18.182Z,953.77
2022-08-05T09:19:17.167Z,953.74
2022-08-05T09:20:36.202Z,953.84
2022-08-05T09:22:13.526Z,953.80
2022-08-05T09:22:30.952Z,953.79
2022-08-05T09:23:18.913Z,953.86
2022-08-05T09:24:17.107Z,953.84
2022-08-05T09:25:24.333Z,953.84
2022-08-05T09:26:20.740Z,953.85
2022-08-05T09:27:18.793Z,953.84
2022-08-05T09:28:21.135Z,953.93
2022-08-05T09:29:18.828Z,953.93
2022-08-05T09:30:17.036Z,953.92
2022-08-05T09:31:58.573Z,953.96
2022-08-05T09:32:42.018Z,953.99
2022-08-05T09:33:18.008Z,954.03
2022-08-05T09:34:16.996Z,954.04
2022-08-05T09:35:26.808Z,954.01
2022-08-05T09:36:17.995Z,954.09
2022-08-05T09:37:16.967Z,953.96
2022-08-05T09:38:27.359Z,954.01
2022-08-05T09:39:21.903Z,953.98
2022-08-05T09:40:16.993Z,954.08
2022-08-05T09:41:16.926Z,954.14
2022-08-05T09:42:23.517Z,953.99
2022-08-05T09:43:17.897Z,954.07
2022-08-05T09:44:16.885Z,953.97
2022-08-05T09:46:04.696Z,953.94
2022-08-05T09:46:17.864Z,953.96
2022-08-05T09:47:17.875Z,953.93
2022-08-05T09:48:16.848Z,953.92
2022-08-05T09:49:19.068Z,953.96
2022-08-05T09:50:18.237Z,953.95
2022-08-05T09:51:17.815Z,953.90
2022-08-05T09:52:16.797Z,953.94
2022-08-05T09:53:25.810Z,954.01
2022-08-05T09:54:28.781Z,954.03
2022-08-05T09:55:56.833Z,953.99
2022-08-05T09:56:17.746Z,954.00
2022-08-05T09:57:23.319Z,953.95
2022-08-05T09:58:17.735Z,953.94
2022-08-05T09:59:17.258Z,954.03
2022-08-05T10:00:16.705Z,953.98
2022-08-05T10:01:39.710Z,953.98
2022-08-05T10:02:17.763Z,953.99
2022-08-05T10:03:16.676Z,953.93
2022-08-05T10:04:17.495Z,953.96
2022-08-05T10:05:16.646Z,953.94
2022-08-05T10:06:16.636Z,953.98
2022-08-05T10:07:31.887Z,953.98
2022-08-05T10:08:37.706Z,953.94
2022-08-05T10:09:27.888Z,953.95
2022-08-05T10:10:17.953Z,953.99
2022-08-05T10:11:17.577Z,953.93
2022-08-05T10:12:30.562Z,953.94
2022-08-05T10:13:17.556Z,953.96
2022-08-05T10:14:16.566Z,953.90
2022-08-05T10:15:17.289Z,953.93
2022-08-05T10:16:16.578Z,954.00
2022-08-05T10:17:37.444Z,953.95
2022-08-05T10:18:17.520Z,953.97
2022-08-05T10:19:16.504Z,953.91
2022-08-05T10:20:18.162Z,953.88
2022-08-05T10:21:16.623Z,953.89
2022-08-05T10:22:29.870Z,953.90
2022-08-05T10:23:34.762Z,953.94
2022-08-05T10:24:17.446Z,953.87
2022-08-05T10:25:16.426Z,953.94
2022-08-05T10:26:16.417Z,953.87
2022-08-05T10:27:16.732Z,953.83
2022-08-05T10:28:19.165Z,953.88
2022-08-05T10:29:22.000Z,953.82
2022-08-05T10:32:48.910Z,953.81
2022-08-05T10:32:52.922Z,953.72
2022-08-05T10:32:54.221Z,953.80
2022-08-05T10:33:17.347Z,953.75
2022-08-05T10:34:17.026Z,953.82
2022-08-05T10:35:16.317Z,953.83
2022-08-05T10:36:16.310Z,953.79
2022-08-05T10:37:17.296Z,953.73
2022-08-05T10:38:16.306Z,953.74
2022-08-05T10:39:24.024Z,953.71
2022-08-05T10:40:18.039Z,953.66
2022-08-05T10:41:23.468Z,953.69
2022-08-05T10:42:18.430Z,953.70
2022-08-05T10:43:16.226Z,953.74
2022-08-05T10:44:16.227Z,953.72
2022-08-05T10:45:23.757Z,953.67
2022-08-05T10:46:17.216Z,953.65
2022-08-05T10:47:26.770Z,953.67
2022-08-05T10:48:30.076Z,953.61
2022-08-05T10:49:17.220Z,953.73
2022-08-05T10:50:32.225Z,953.74
2022-08-05T10:51:22.490Z,953.75
2022-08-05T10:52:17.149Z,953.72
2022-08-05T10:53:16.124Z,953.68
2022-08-05T10:54:28.369Z,953.67
2022-08-05T10:55:18.537Z,953.64
2022-08-05T10:56:25.700Z,953.66
2022-08-05T10:57:17.075Z,953.65
2022-08-05T10:58:16.083Z,953.66
2022-08-05T11:00:03.328Z,953.68
2022-08-05T11:00:20.238Z,953.64
2022-08-05T11:01:16.168Z,953.68
2022-08-05T11:02:37.445Z,953.70
2022-08-05T11:03:25.463Z,953.66
2022-08-05T11:04:16.998Z,953.66
2022-08-05T11:05:18.158Z,953.72
2022-08-05T11:06:17.918Z,953.71
2022-08-05T11:07:16.317Z,953.69
2022-08-05T11:08:36.691Z,953.67
2022-08-05T11:09:17.332Z,953.80
2022-08-05T11:10:15.936Z,953.72
2022-08-05T11:11:16.809Z,953.73
2022-08-05T11:12:15.946Z,953.70
2022-08-05T11:13:15.897Z,953.70
2022-08-05T11:14:15.906Z,953.67
2022-08-05T11:15:20.107Z,953.64
2022-08-05T11:16:16.857Z,953.67
2022-08-05T11:17:58.767Z,953.62
2022-08-05T11:18:16.839Z,953.62
2022-08-05T11:20:16.575Z,953.65
2022-08-05T11:20:18.495Z,953.62
2022-08-05T11:21:15.806Z,953.65
2022-08-05T11:22:15.797Z,953.60
2022-08-05T11:23:15.786Z,953.59
2022-08-05T11:24:30.745Z,953.57
2022-08-05T11:26:06.004Z,953.58
2022-08-05T11:26:16.767Z,953.61
2022-08-05T11:27:16.743Z,953.64
2022-08-05T11:28:17.291Z,953.60
2022-08-05T11:29:15.727Z,953.66
2022-08-05T11:30:15.710Z,953.62
2022-08-05T11:31:54.182Z,953.55
2022-08-05T11:32:16.775Z,953.58
2022-08-05T11:33:21.213Z,953.52
2022-08-05T11:34:22.494Z,953.55
2022-08-05T11:35:16.646Z,953.55
2022-08-05T11:36:16.722Z,953.48
2022-08-05T11:38:30.134Z,953.51
2022-08-05T11:38:30.467Z,953.51
2022-08-05T11:39:16.647Z,953.51
2022-08-05T11:40:15.603Z,953.56
2022-08-05T11:41:58.120Z,953.52
2022-08-05T11:42:18.402Z,953.49
2022-08-05T11:43:15.566Z,953.49
2022-08-05T11:44:40.150Z,953.47
2022-08-05T11:45:26.835Z,953.52
2022-08-05T11:46:32.484Z,953.51
2022-08-05T11:47:21.766Z,953.49
2022-08-05T11:48:16.537Z,953.57
2022-08-05T11:49:15.527Z,953.46
2022-08-05T11:50:15.528Z,953.42
2022-08-05T11:51:43.754Z,953.46
2022-08-05T11:52:16.467Z,953.45
2022-08-05T11:53:16.456Z,953.38
2022-08-05T11:54:15.457Z,953.39
2022-08-05T11:55:15.437Z,953.41
2022-08-05T11:56:15.427Z,953.43
2022-08-05T11:57:25.919Z,953.39
2022-08-05T11:58:17.429Z,953.38
2022-08-05T11:59:15.387Z,953.31
2022-08-05T12:00:16.398Z,953.39
2022-08-05T12:01:15.421Z,953.36
2022-08-05T12:02:30.583Z,953.35
2022-08-05T12:03:16.423Z,953.33
2022-08-05T12:04:16.336Z,953.34
2022-08-05T12:05:18.532Z,953.33
2022-08-05T12:06:15.318Z,953.31
2022-08-05T12:07:15.306Z,953.22
2022-08-05T12:08:18.176Z,953.28
2022-08-05T12:09:19.826Z,953.28
2022-08-05T12:10:16.288Z,953.30
2022-08-05T12:11:20.288Z,953.27
2022-08-05T12:12:16.247Z,953.31
2022-08-05T12:13:16.372Z,953.26
2022-08-05T12:14:15.227Z,953.23
2022-08-05T12:15:16.809Z,953.22
2022-08-05T12:16:15.645Z,953.24
2022-08-05T12:18:02.880Z,953.28
2022-08-05T12:18:16.378Z,953.27
2022-08-05T12:20:27.657Z,953.21
2022-08-05T12:20:27.718Z,953.23
2022-08-05T12:21:16.160Z,953.21
2022-08-05T12:22:19.913Z,953.20
2022-08-05T12:23:16.116Z,953.19
2022-08-05T12:24:17.121Z,953.23
2022-08-05T12:25:15.116Z,953.19
2022-08-05T12:26:15.086Z,953.25
2022-08-05T12:27:21.625Z,953.26
2022-08-05T12:28:16.071Z,953.15